sensor_id;sensor_type;location;lat;lon;timestamp;P1;durP1;ratioP1;P2;durP2;ratioP2
33357;SDS011;19717;42.614;23.418;2023-04-25T00:02:25;0.90;;;0.90;;
33357;SDS011;19717;42.614;23.418;2023-04-25T00:04:53;0.90;;;0.90;;
33357;SDS011;19717;42.614;23.418;2023-04-25T00:07:23;0.90;;;0.90;;
33357;SDS011;19717;42.614;23.418;2023-04-25T00:09:49;0.85;;;0.85;;
33357;SDS011;19717;42.614;23.418;2023-04-25T00:12:15;1.10;;;1.10;;
33357;SDS011;19717;42.614;23.418;2023-04-25T00:14:43;1.17;;;1.17;;
33357;SDS011;19717;42.614;23.418;2023-04-25T00:17:10;1.20;;;1.20;;
33357;SDS011;19717;42.614;23.418;2023-04-25T00:19:36;1.20;;;1.20;;
33357;SDS011;19717;42.614;23.418;2023-04-25T00:22:03;1.30;;;1.30;;
33357;SDS011;19717;42.614;23.418;2023-04-25T00:24:30;1.15;;;1.15;;
33357;SDS011;19717;42.614;23.418;2023-04-25T00:26:56;1.50;;;1.23;;
33357;SDS011;19717;42.614;23.418;2023-04-25T00:29:22;1.30;;;1.30;;
33357;SDS011;19717;42.614;23.418;2023-04-25T00:31:48;1.30;;;1.30;;
33357;SDS011;19717;42.614;23.418;2023-04-25T00:34:14;1.17;;;1.17;;
33357;SDS011;19717;42.614;23.418;2023-04-25T00:36:40;1.67;;;1.58;;
33357;SDS011;19717;42.614;23.418;2023-04-25T00:39:06;1.70;;;1.60;;
33357;SDS011;19717;42.614;23.418;2023-04-25T00:41:33;1.70;;;1.60;;
33357;SDS011;19717;42.614;23.418;2023-04-25T00:43:59;1.73;;;1.63;;
33357;SDS011;19717;42.614;23.418;2023-04-25T00:46:26;1.60;;;1.50;;
33357;SDS011;19717;42.614;23.418;2023-04-25T00:48:52;1.70;;;1.60;;
33357;SDS011;19717;42.614;23.418;2023-04-25T00:51:21;1.73;;;1.63;;
33357;SDS011;19717;42.614;23.418;2023-04-25T00:53:48;1.85;;;1.50;;
33357;SDS011;19717;42.614;23.418;2023-04-25T00:56:15;1.60;;;1.50;;
33357;SDS011;19717;42.614;23.418;2023-04-25T00:58:41;1.48;;;1.45;;
33357;SDS011;19717;42.614;23.418;2023-04-25T01:01:08;1.67;;;1.58;;
33357;SDS011;19717;42.614;23.418;2023-04-25T01:03:34;2.10;;;1.90;;
33357;SDS011;19717;42.614;23.418;2023-04-25T01:06:06;1.60;;;1.50;;
33357;SDS011;19717;42.614;23.418;2023-04-25T01:08:32;1.63;;;1.52;;
33357;SDS011;19717;42.614;23.418;2023-04-25T01:11:00;1.63;;;1.52;;
33357;SDS011;19717;42.614;23.418;2023-04-25T01:13:26;1.60;;;1.50;;
33357;SDS011;19717;42.614;23.418;2023-04-25T01:15:52;1.85;;;1.75;;
33357;SDS011;19717;42.614;23.418;2023-04-25T01:18:19;2.00;;;1.50;;
33357;SDS011;19717;42.614;23.418;2023-04-25T01:20:45;1.83;;;1.60;;
33357;SDS011;19717;42.614;23.418;2023-04-25T01:23:12;1.63;;;1.52;;
33357;SDS011;19717;42.614;23.418;2023-04-25T01:25:38;1.38;;;1.38;;
33357;SDS011;19717;42.614;23.418;2023-04-25T01:28:04;1.63;;;1.52;;
33357;SDS011;19717;42.614;23.418;2023-04-25T01:30:30;1.77;;;1.67;;
33357;SDS011;19717;42.614;23.418;2023-04-25T01:32:57;1.60;;;1.50;;
33357;SDS011;19717;42.614;23.418;2023-04-25T01:35:25;1.85;;;1.60;;
33357;SDS011;19717;42.614;23.418;2023-04-25T01:37:51;1.42;;;1.42;;
33357;SDS011;19717;42.614;23.418;2023-04-25T01:40:17;1.50;;;1.42;;
33357;SDS011;19717;42.614;23.418;2023-04-25T01:42:44;1.80;;;1.70;;
33357;SDS011;19717;42.614;23.418;2023-04-25T01:45:10;1.80;;;1.70;;
33357;SDS011;19717;42.614;23.418;2023-04-25T01:47:37;1.58;;;1.50;;
33357;SDS011;19717;42.614;23.418;2023-04-25T01:50:04;1.58;;;1.48;;
33357;SDS011;19717;42.614;23.418;2023-04-25T01:52:31;1.50;;;1.40;;
33357;SDS011;19717;42.614;23.418;2023-04-25T01:54:57;1.30;;;1.30;;
33357;SDS011;19717;42.614;23.418;2023-04-25T01:57:25;3.78;;;3.47;;
33357;SDS011;19717;42.614;23.418;2023-04-25T01:59:51;1.60;;;1.50;;
33357;SDS011;19717;42.614;23.418;2023-04-25T02:02:18;1.33;;;1.33;;
33357;SDS011;19717;42.614;23.418;2023-04-25T02:04:44;1.65;;;1.55;;
33357;SDS011;19717;42.614;23.418;2023-04-25T02:07:10;1.60;;;1.50;;
33357;SDS011;19717;42.614;23.418;2023-04-25T02:09:36;1.50;;;1.40;;
33357;SDS011;19717;42.614;23.418;2023-04-25T02:12:03;1.63;;;1.52;;
33357;SDS011;19717;42.614;23.418;2023-04-25T02:14:29;1.77;;;1.67;;
33357;SDS011;19717;42.614;23.418;2023-04-25T02:16:55;1.70;;;1.60;;
33357;SDS011;19717;42.614;23.418;2023-04-25T02:19:22;1.85;;;1.75;;
33357;SDS011;19717;42.614;23.418;2023-04-25T02:21:48;1.85;;;1.75;;
33357;SDS011;19717;42.614;23.418;2023-04-25T02:24:14;1.65;;;1.55;;
33357;SDS011;19717;42.614;23.418;2023-04-25T02:26:40;1.65;;;1.55;;
33357;SDS011;19717;42.614;23.418;2023-04-25T02:29:06;1.60;;;1.50;;
33357;SDS011;19717;42.614;23.418;2023-04-25T02:31:32;1.73;;;1.63;;
33357;SDS011;19717;42.614;23.418;2023-04-25T02:33:58;1.85;;;1.75;;
33357;SDS011;19717;42.614;23.418;2023-04-25T02:36:24;1.73;;;1.63;;
33357;SDS011;19717;42.614;23.418;2023-04-25T02:38:51;1.55;;;1.45;;
33357;SDS011;19717;42.614;23.418;2023-04-25T02:41:17;1.48;;;1.48;;
33357;SDS011;19717;42.614;23.418;2023-04-25T02:43:43;1.40;;;1.40;;
33357;SDS011;19717;42.614;23.418;2023-04-25T02:46:09;1.83;;;1.50;;
33357;SDS011;19717;42.614;23.418;2023-04-25T02:48:35;1.60;;;1.50;;
33357;SDS011;19717;42.614;23.418;2023-04-25T02:51:01;1.45;;;1.35;;
33357;SDS011;19717;42.614;23.418;2023-04-25T02:53:27;1.40;;;1.40;;
33357;SDS011;19717;42.614;23.418;2023-04-25T02:55:53;1.55;;;1.45;;
33357;SDS011;19717;42.614;23.418;2023-04-25T02:58:19;1.60;;;1.50;;
33357;SDS011;19717;42.614;23.418;2023-04-25T03:00:45;1.45;;;1.35;;
33357;SDS011;19717;42.614;23.418;2023-04-25T03:03:11;1.85;;;1.60;;
33357;SDS011;19717;42.614;23.418;2023-04-25T03:05:38;2.40;;;1.52;;
33357;SDS011;19717;42.614;23.418;2023-04-25T03:08:04;1.70;;;1.60;;
33357;SDS011;19717;42.614;23.418;2023-04-25T03:10:30;1.50;;;1.40;;
33357;SDS011;19717;42.614;23.418;2023-04-25T03:12:56;1.63;;;1.52;;
33357;SDS011;19717;42.614;23.418;2023-04-25T03:15:22;1.60;;;1.50;;
33357;SDS011;19717;42.614;23.418;2023-04-25T03:17:48;1.73;;;1.63;;
33357;SDS011;19717;42.614;23.418;2023-04-25T03:20:14;2.10;;;2.00;;
33357;SDS011;19717;42.614;23.418;2023-04-25T03:22:40;1.90;;;1.80;;
33357;SDS011;19717;42.614;23.418;2023-04-25T03:25:07;2.20;;;2.00;;
33357;SDS011;19717;42.614;23.418;2023-04-25T03:27:33;1.70;;;1.60;;
33357;SDS011;19717;42.614;23.418;2023-04-25T03:29:59;1.90;;;1.80;;
33357;SDS011;19717;42.614;23.418;2023-04-25T03:32:25;2.10;;;1.90;;
33357;SDS011;19717;42.614;23.418;2023-04-25T03:34:51;2.30;;;2.10;;
33357;SDS011;19717;42.614;23.418;2023-04-25T03:37:17;2.30;;;2.20;;
33357;SDS011;19717;42.614;23.418;2023-04-25T03:39:43;2.20;;;2.10;;
33357;SDS011;19717;42.614;23.418;2023-04-25T03:42:09;2.22;;;2.13;;
33357;SDS011;19717;42.614;23.418;2023-04-25T03:44:35;3.78;;;3.13;;
33357;SDS011;19717;42.614;23.418;2023-04-25T03:47:01;3.70;;;3.40;;
33357;SDS011;19717;42.614;23.418;2023-04-25T03:49:27;4.30;;;3.50;;
33357;SDS011;19717;42.614;23.418;2023-04-25T03:51:53;4.05;;;3.65;;
33357;SDS011;19717;42.614;23.418;2023-04-25T03:54:19;3.22;;;2.92;;
33357;SDS011;19717;42.614;23.418;2023-04-25T03:56:46;4.03;;;3.17;;
33357;SDS011;19717;42.614;23.418;2023-04-25T03:59:14;3.30;;;3.00;;
33357;SDS011;19717;42.614;23.418;2023-04-25T04:01:40;3.55;;;3.25;;
33357;SDS011;19717;42.614;23.418;2023-04-25T04:04:07;3.42;;;3.20;;
33357;SDS011;19717;42.614;23.418;2023-04-25T04:06:33;3.42;;;3.13;;
33357;SDS011;19717;42.614;23.418;2023-04-25T04:08:59;3.60;;;3.30;;
33357;SDS011;19717;42.614;23.418;2023-04-25T04:11:25;3.10;;;2.90;;
33357;SDS011;19717;42.614;23.418;2023-04-25T04:13:51;2.83;;;2.63;;
33357;SDS011;19717;42.614;23.418;2023-04-25T04:16:17;2.58;;;2.38;;
33357;SDS011;19717;42.614;23.418;2023-04-25T04:18:44;2.50;;;2.30;;
33357;SDS011;19717;42.614;23.418;2023-04-25T04:21:10;2.60;;;2.40;;
33357;SDS011;19717;42.614;23.418;2023-04-25T04:23:36;3.30;;;3.10;;
33357;SDS011;19717;42.614;23.418;2023-04-25T04:26:02;3.55;;;3.20;;
33357;SDS011;19717;42.614;23.418;2023-04-25T04:28:28;4.03;;;3.67;;
33357;SDS011;19717;42.614;23.418;2023-04-25T04:30:55;3.90;;;3.60;;
33357;SDS011;19717;42.614;23.418;2023-04-25T04:33:22;4.20;;;3.80;;
33357;SDS011;19717;42.614;23.418;2023-04-25T04:35:48;3.58;;;3.28;;
33357;SDS011;19717;42.614;23.418;2023-04-25T04:38:17;3.40;;;3.15;;
33357;SDS011;19717;42.614;23.418;2023-04-25T04:40:43;3.30;;;3.00;;
33357;SDS011;19717;42.614;23.418;2023-04-25T04:43:09;3.72;;;3.42;;
33357;SDS011;19717;42.614;23.418;2023-04-25T04:45:36;3.60;;;3.30;;
33357;SDS011;19717;42.614;23.418;2023-04-25T04:48:05;3.40;;;3.10;;
33357;SDS011;19717;42.614;23.418;2023-04-25T04:50:31;3.65;;;3.35;;
33357;SDS011;19717;42.614;23.418;2023-04-25T04:52:57;3.25;;;2.95;;
33357;SDS011;19717;42.614;23.418;2023-04-25T04:55:23;3.35;;;3.10;;
33357;SDS011;19717;42.614;23.418;2023-04-25T04:57:50;3.30;;;3.00;;
33357;SDS011;19717;42.614;23.418;2023-04-25T05:00:16;3.70;;;3.40;;
33357;SDS011;19717;42.614;23.418;2023-04-25T05:02:42;3.58;;;3.28;;
33357;SDS011;19717;42.614;23.418;2023-04-25T05:05:08;3.83;;;3.42;;
33357;SDS011;19717;42.614;23.418;2023-04-25T05:07:34;3.25;;;2.95;;
33357;SDS011;19717;42.614;23.418;2023-04-25T05:10:00;6.32;;;5.75;;
33357;SDS011;19717;42.614;23.418;2023-04-25T05:12:26;5.68;;;5.10;;
33357;SDS011;19717;42.614;23.418;2023-04-25T05:14:52;6.00;;;5.10;;
33357;SDS011;19717;42.614;23.418;2023-04-25T05:17:19;3.75;;;3.45;;
33357;SDS011;19717;42.614;23.418;2023-04-25T05:19:45;3.75;;;3.45;;
33357;SDS011;19717;42.614;23.418;2023-04-25T05:22:11;2.60;;;2.40;;
33357;SDS011;19717;42.614;23.418;2023-04-25T05:24:37;3.10;;;2.83;;
33357;SDS011;19717;42.614;23.418;2023-04-25T05:27:03;2.33;;;2.13;;
33357;SDS011;19717;42.614;23.418;2023-04-25T05:29:29;3.30;;;3.10;;
33357;SDS011;19717;42.614;23.418;2023-04-25T05:31:55;4.22;;;3.88;;
33357;SDS011;19717;42.614;23.418;2023-04-25T05:34:21;2.30;;;2.20;;
33357;SDS011;19717;42.614;23.418;2023-04-25T05:36:47;2.38;;;2.00;;
33357;SDS011;19717;42.614;23.418;2023-04-25T05:39:15;1.92;;;1.83;;
33357;SDS011;19717;42.614;23.418;2023-04-25T05:41:41;2.13;;;2.00;;
33357;SDS011;19717;42.614;23.418;2023-04-25T05:44:07;1.92;;;1.83;;
33357;SDS011;19717;42.614;23.418;2023-04-25T05:46:34;7.13;;;2.20;;
33357;SDS011;19717;42.614;23.418;2023-04-25T05:49:00;2.10;;;2.00;;
33357;SDS011;19717;42.614;23.418;2023-04-25T05:51:26;2.35;;;2.22;;
33357;SDS011;19717;42.614;23.418;2023-04-25T05:53:52;2.92;;;2.70;;
33357;SDS011;19717;42.614;23.418;2023-04-25T05:56:18;2.83;;;2.63;;
33357;SDS011;19717;42.614;23.418;2023-04-25T05:58:44;3.35;;;3.05;;
33357;SDS011;19717;42.614;23.418;2023-04-25T06:01:11;3.15;;;2.95;;
33357;SDS011;19717;42.614;23.418;2023-04-25T06:03:41;2.92;;;2.72;;
33357;SDS011;19717;42.614;23.418;2023-04-25T06:06:08;3.22;;;3.00;;
33357;SDS011;19717;42.614;23.418;2023-04-25T06:08:34;3.00;;;2.80;;
33357;SDS011;19717;42.614;23.418;2023-04-25T06:11:01;2.55;;;2.40;;
33357;SDS011;19717;42.614;23.418;2023-04-25T06:13:30;2.58;;;2.38;;
33357;SDS011;19717;42.614;23.418;2023-04-25T06:15:56;2.67;;;2.47;;
33357;SDS011;19717;42.614;23.418;2023-04-25T06:18:22;3.30;;;3.10;;
33357;SDS011;19717;42.614;23.418;2023-04-25T06:20:48;3.20;;;3.00;;
33357;SDS011;19717;42.614;23.418;2023-04-25T06:23:14;2.80;;;2.60;;
33357;SDS011;19717;42.614;23.418;2023-04-25T06:25:40;3.38;;;3.10;;
33357;SDS011;19717;42.614;23.418;2023-04-25T06:28:06;3.08;;;2.88;;
33357;SDS011;19717;42.614;23.418;2023-04-25T06:30:32;2.80;;;2.60;;
33357;SDS011;19717;42.614;23.418;2023-04-25T06:33:01;2.42;;;2.22;;
33357;SDS011;19717;42.614;23.418;2023-04-25T06:35:27;2.47;;;2.38;;
33357;SDS011;19717;42.614;23.418;2023-04-25T06:37:53;2.72;;;2.53;;
33357;SDS011;19717;42.614;23.418;2023-04-25T06:40:19;2.90;;;2.70;;
33357;SDS011;19717;42.614;23.418;2023-04-25T06:42:45;3.13;;;2.83;;
33357;SDS011;19717;42.614;23.418;2023-04-25T06:45:11;2.85;;;2.65;;
33357;SDS011;19717;42.614;23.418;2023-04-25T06:47:37;2.80;;;2.60;;
33357;SDS011;19717;42.614;23.418;2023-04-25T06:50:03;3.10;;;2.90;;
33357;SDS011;19717;42.614;23.418;2023-04-25T06:52:29;2.90;;;2.70;;
33357;SDS011;19717;42.614;23.418;2023-04-25T06:54:56;2.70;;;2.50;;
33357;SDS011;19717;42.614;23.418;2023-04-25T06:57:22;3.00;;;2.80;;
33357;SDS011;19717;42.614;23.418;2023-04-25T06:59:48;3.05;;;2.85;;
33357;SDS011;19717;42.614;23.418;2023-04-25T07:02:14;3.20;;;3.00;;
33357;SDS011;19717;42.614;23.418;2023-04-25T07:04:40;3.40;;;3.10;;
33357;SDS011;19717;42.614;23.418;2023-04-25T07:07:06;2.80;;;2.60;;
33357;SDS011;19717;42.614;23.418;2023-04-25T07:09:32;2.55;;;2.35;;
33357;SDS011;19717;42.614;23.418;2023-04-25T07:11:59;2.42;;;2.22;;
33357;SDS011;19717;42.614;23.418;2023-04-25T07:14:26;1.90;;;1.80;;
33357;SDS011;19717;42.614;23.418;2023-04-25T07:16:52;1.70;;;1.60;;
33357;SDS011;19717;42.614;23.418;2023-04-25T07:19:20;1.42;;;1.33;;
33357;SDS011;19717;42.614;23.418;2023-04-25T07:21:46;1.60;;;1.50;;
33357;SDS011;19717;42.614;23.418;2023-04-25T07:24:12;1.70;;;1.60;;
33357;SDS011;19717;42.614;23.418;2023-04-25T07:26:38;2.00;;;1.90;;
33357;SDS011;19717;42.614;23.418;2023-04-25T07:29:05;4.10;;;3.85;;
33357;SDS011;19717;42.614;23.418;2023-04-25T07:31:31;1.98;;;1.80;;
33357;SDS011;19717;42.614;23.418;2023-04-25T07:33:57;1.35;;;1.35;;
33357;SDS011;19717;42.614;23.418;2023-04-25T07:36:23;1.80;;;1.70;;
33357;SDS011;19717;42.614;23.418;2023-04-25T07:38:49;2.22;;;1.52;;
33357;SDS011;19717;42.614;23.418;2023-04-25T07:41:15;1.60;;;1.50;;
33357;SDS011;19717;42.614;23.418;2023-04-25T07:43:41;1.38;;;1.38;;
33357;SDS011;19717;42.614;23.418;2023-04-25T07:46:07;1.50;;;1.40;;
33357;SDS011;19717;42.614;23.418;2023-04-25T07:48:33;1.45;;;1.38;;
33357;SDS011;19717;42.614;23.418;2023-04-25T07:50:59;1.45;;;1.35;;
33357;SDS011;19717;42.614;23.418;2023-04-25T07:53:25;1.40;;;1.30;;
33357;SDS011;19717;42.614;23.418;2023-04-25T07:55:51;1.60;;;1.50;;
33357;SDS011;19717;42.614;23.418;2023-04-25T07:58:18;1.27;;;1.27;;
33357;SDS011;19717;42.614;23.418;2023-04-25T08:00:47;1.15;;;1.13;;
33357;SDS011;19717;42.614;23.418;2023-04-25T08:03:13;1.27;;;1.20;;
33357;SDS011;19717;42.614;23.418;2023-04-25T08:05:39;1.10;;;1.10;;
33357;SDS011;19717;42.614;23.418;2023-04-25T08:08:05;1.00;;;1.00;;
33357;SDS011;19717;42.614;23.418;2023-04-25T08:10:32;1.20;;;1.20;;
33357;SDS011;19717;42.614;23.418;2023-04-25T08:12:58;1.08;;;1.08;;
33357;SDS011;19717;42.614;23.418;2023-04-25T08:15:25;1.00;;;1.00;;
33357;SDS011;19717;42.614;23.418;2023-04-25T08:17:51;1.90;;;1.10;;
33357;SDS011;19717;42.614;23.418;2023-04-25T08:20:17;1.10;;;1.10;;
33357;SDS011;19717;42.614;23.418;2023-04-25T08:22:43;1.13;;;1.13;;
33357;SDS011;19717;42.614;23.418;2023-04-25T08:25:09;1.40;;;1.30;;
33357;SDS011;19717;42.614;23.418;2023-04-25T08:27:35;1.20;;;1.20;;
33357;SDS011;19717;42.614;23.418;2023-04-25T08:30:02;1.90;;;1.80;;
33357;SDS011;19717;42.614;23.418;2023-04-25T08:32:28;1.15;;;1.15;;
33357;SDS011;19717;42.614;23.418;2023-04-25T08:34:54;1.17;;;1.17;;
33357;SDS011;19717;42.614;23.418;2023-04-25T08:37:20;1.00;;;1.00;;
33357;SDS011;19717;42.614;23.418;2023-04-25T08:39:47;0.88;;;0.88;;
33357;SDS011;19717;42.614;23.418;2023-04-25T08:42:18;4.65;;;4.25;;
33357;SDS011;19717;42.614;23.418;2023-04-25T08:44:45;1.70;;;1.60;;
33357;SDS011;19717;42.614;23.418;2023-04-25T08:47:11;0.90;;;0.90;;
33357;SDS011;19717;42.614;23.418;2023-04-25T08:49:37;0.80;;;0.80;;
33357;SDS011;19717;42.614;23.418;2023-04-25T08:52:04;0.90;;;0.90;;
33357;SDS011;19717;42.614;23.418;2023-04-25T08:54:35;0.90;;;0.90;;
33357;SDS011;19717;42.614;23.418;2023-04-25T08:57:02;0.80;;;0.80;;
33357;SDS011;19717;42.614;23.418;2023-04-25T08:59:29;1.05;;;1.05;;
33357;SDS011;19717;42.614;23.418;2023-04-25T09:01:55;0.90;;;0.90;;
33357;SDS011;19717;42.614;23.418;2023-04-25T09:04:22;9.35;;;8.40;;
33357;SDS011;19717;42.614;23.418;2023-04-25T09:06:48;1.20;;;1.10;;
33357;SDS011;19717;42.614;23.418;2023-04-25T09:09:17;0.80;;;0.80;;
33357;SDS011;19717;42.614;23.418;2023-04-25T09:11:43;0.80;;;0.80;;
33357;SDS011;19717;42.614;23.418;2023-04-25T09:17:00;0.85;;;0.85;;
33357;SDS011;19717;42.614;23.418;2023-04-25T09:21:55;0.70;;;0.70;;
33357;SDS011;19717;42.614;23.418;2023-04-25T09:24:38;0.80;;;0.80;;
33357;SDS011;19717;42.614;23.418;2023-04-25T09:27:09;0.90;;;0.90;;
33357;SDS011;19717;42.614;23.418;2023-04-25T09:29:37;0.80;;;0.80;;
33357;SDS011;19717;42.614;23.418;2023-04-25T09:32:19;0.80;;;0.80;;
33357;SDS011;19717;42.614;23.418;2023-04-25T09:34:55;0.80;;;0.80;;
33357;SDS011;19717;42.614;23.418;2023-04-25T09:37:26;1.05;;;0.80;;
33357;SDS011;19717;42.614;23.418;2023-04-25T09:39:56;0.70;;;0.70;;
33357;SDS011;19717;42.614;23.418;2023-04-25T09:42:24;0.70;;;0.70;;
33357;SDS011;19717;42.614;23.418;2023-04-25T09:44:55;0.70;;;0.70;;
33357;SDS011;19717;42.614;23.418;2023-04-25T09:47:23;0.60;;;0.60;;
33357;SDS011;19717;42.614;23.418;2023-04-25T09:49:50;0.73;;;0.73;;
33357;SDS011;19717;42.614;23.418;2023-04-25T09:52:17;0.82;;;0.82;;
33357;SDS011;19717;42.614;23.418;2023-04-25T09:54:44;0.80;;;0.80;;
33357;SDS011;19717;42.614;23.418;2023-04-25T09:57:14;0.90;;;0.90;;
33357;SDS011;19717;42.614;23.418;2023-04-25T10:02:13;1.20;;;0.90;;
33357;SDS011;19717;42.614;23.418;2023-04-25T10:04:41;1.48;;;0.90;;
33357;SDS011;19717;42.614;23.418;2023-04-25T10:07:08;0.90;;;0.90;;
33357;SDS011;19717;42.614;23.418;2023-04-25T10:09:36;0.50;;;0.50;;
33357;SDS011;19717;42.614;23.418;2023-04-25T10:12:02;0.50;;;0.50;;
33357;SDS011;19717;42.614;23.418;2023-04-25T10:14:29;0.50;;;0.50;;
33357;SDS011;19717;42.614;23.418;2023-04-25T10:16:57;0.60;;;0.60;;
33357;SDS011;19717;42.614;23.418;2023-04-25T10:19:24;0.60;;;0.60;;
33357;SDS011;19717;42.614;23.418;2023-04-25T10:22:13;0.57;;;0.57;;
33357;SDS011;19717;42.614;23.418;2023-04-25T10:24:36;0.60;;;0.60;;
33357;SDS011;19717;42.614;23.418;2023-04-25T10:27:04;0.50;;;0.50;;
33357;SDS011;19717;42.614;23.418;2023-04-25T10:29:30;0.50;;;0.50;;
33357;SDS011;19717;42.614;23.418;2023-04-25T10:31:56;1.13;;;0.73;;
33357;SDS011;19717;42.614;23.418;2023-04-25T10:34:38;0.70;;;0.70;;
33357;SDS011;19717;42.614;23.418;2023-04-25T10:37:05;0.60;;;0.60;;
33357;SDS011;19717;42.614;23.418;2023-04-25T10:39:34;0.50;;;0.50;;
33357;SDS011;19717;42.614;23.418;2023-04-25T10:42:01;0.88;;;0.88;;
33357;SDS011;19717;42.614;23.418;2023-04-25T10:44:28;0.77;;;0.77;;
33357;SDS011;19717;42.614;23.418;2023-04-25T10:46:55;0.85;;;0.80;;
33357;SDS011;19717;42.614;23.418;2023-04-25T10:49:34;1.05;;;0.60;;
33357;SDS011;19717;42.614;23.418;2023-04-25T10:54:42;0.60;;;0.60;;
33357;SDS011;19717;42.614;23.418;2023-04-25T10:57:25;0.60;;;0.60;;
33357;SDS011;19717;42.614;23.418;2023-04-25T10:59:52;0.60;;;0.60;;
33357;SDS011;19717;42.614;23.418;2023-04-25T11:02:18;0.50;;;0.50;;
33357;SDS011;19717;42.614;23.418;2023-04-25T11:04:44;0.50;;;0.50;;
33357;SDS011;19717;42.614;23.418;2023-04-25T11:07:13;0.60;;;0.60;;
33357;SDS011;19717;42.614;23.418;2023-04-25T11:09:45;0.52;;;0.52;;
33357;SDS011;19717;42.614;23.418;2023-04-25T11:12:11;1.92;;;1.83;;
33357;SDS011;19717;42.614;23.418;2023-04-25T11:14:38;0.60;;;0.60;;
33357;SDS011;19717;42.614;23.418;2023-04-25T11:17:04;1.50;;;0.50;;
33357;SDS011;19717;42.614;23.418;2023-04-25T11:19:31;0.68;;;0.68;;
33357;SDS011;19717;42.614;23.418;2023-04-25T11:21:58;0.60;;;0.60;;
33357;SDS011;19717;42.614;23.418;2023-04-25T11:24:30;0.57;;;0.57;;
33357;SDS011;19717;42.614;23.418;2023-04-25T11:27:02;0.60;;;0.60;;
33357;SDS011;19717;42.614;23.418;2023-04-25T11:29:32;1.00;;;0.60;;
33357;SDS011;19717;42.614;23.418;2023-04-25T11:31:58;0.50;;;0.50;;
33357;SDS011;19717;42.614;23.418;2023-04-25T11:34:25;0.60;;;0.60;;
33357;SDS011;19717;42.614;23.418;2023-04-25T11:36:52;0.52;;;0.50;;
33357;SDS011;19717;42.614;23.418;2023-04-25T11:39:19;0.50;;;0.50;;
33357;SDS011;19717;42.614;23.418;2023-04-25T11:41:45;0.50;;;0.50;;
33357;SDS011;19717;42.614;23.418;2023-04-25T11:44:12;0.50;;;0.50;;
33357;SDS011;19717;42.614;23.418;2023-04-25T11:46:41;0.50;;;0.50;;
33357;SDS011;19717;42.614;23.418;2023-04-25T11:49:07;0.50;;;0.50;;
33357;SDS011;19717;42.614;23.418;2023-04-25T11:54:06;0.80;;;0.80;;
33357;SDS011;19717;42.614;23.418;2023-04-25T11:56:36;0.50;;;0.50;;
33357;SDS011;19717;42.614;23.418;2023-04-25T11:59:03;0.50;;;0.50;;
33357;SDS011;19717;42.614;23.418;2023-04-25T12:03:56;0.45;;;0.45;;
33357;SDS011;19717;42.614;23.418;2023-04-25T12:06:26;0.50;;;0.50;;
33357;SDS011;19717;42.614;23.418;2023-04-25T12:09:02;0.50;;;0.50;;
33357;SDS011;19717;42.614;23.418;2023-04-25T12:11:30;0.55;;;0.55;;
33357;SDS011;19717;42.614;23.418;2023-04-25T12:14:03;0.60;;;0.60;;
33357;SDS011;19717;42.614;23.418;2023-04-25T12:16:30;0.75;;;0.50;;
33357;SDS011;19717;42.614;23.418;2023-04-25T12:19:06;0.50;;;0.50;;
33357;SDS011;19717;42.614;23.418;2023-04-25T12:21:32;1.70;;;0.50;;
33357;SDS011;19717;42.614;23.418;2023-04-25T12:24:16;5.40;;;0.60;;
33357;SDS011;19717;42.614;23.418;2023-04-25T12:26:50;0.50;;;0.50;;
33357;SDS011;19717;42.614;23.418;2023-04-25T12:29:21;0.50;;;0.50;;
33357;SDS011;19717;42.614;23.418;2023-04-25T12:31:47;0.50;;;0.50;;
33357;SDS011;19717;42.614;23.418;2023-04-25T12:34:14;0.60;;;0.60;;
33357;SDS011;19717;42.614;23.418;2023-04-25T12:36:40;0.50;;;0.50;;
33357;SDS011;19717;42.614;23.418;2023-04-25T12:39:06;0.40;;;0.40;;
33357;SDS011;19717;42.614;23.418;2023-04-25T12:41:33;0.40;;;0.40;;
33357;SDS011;19717;42.614;23.418;2023-04-25T12:44:00;0.52;;;0.52;;
33357;SDS011;19717;42.614;23.418;2023-04-25T12:46:26;0.40;;;0.40;;
33357;SDS011;19717;42.614;23.418;2023-04-25T12:48:52;0.68;;;0.60;;
33357;SDS011;19717;42.614;23.418;2023-04-25T12:51:19;0.50;;;0.50;;
33357;SDS011;19717;42.614;23.418;2023-04-25T12:53:45;0.50;;;0.50;;
33357;SDS011;19717;42.614;23.418;2023-04-25T12:56:11;0.70;;;0.70;;
33357;SDS011;19717;42.614;23.418;2023-04-25T12:58:37;1.55;;;0.60;;
33357;SDS011;19717;42.614;23.418;2023-04-25T13:01:03;0.60;;;0.60;;
33357;SDS011;19717;42.614;23.418;2023-04-25T13:03:30;0.50;;;0.50;;
33357;SDS011;19717;42.614;23.418;2023-04-25T13:05:56;0.52;;;0.52;;
33357;SDS011;19717;42.614;23.418;2023-04-25T13:08:22;0.50;;;0.50;;
33357;SDS011;19717;42.614;23.418;2023-04-25T13:10:49;0.50;;;0.50;;
33357;SDS011;19717;42.614;23.418;2023-04-25T13:13:15;0.50;;;0.40;;
33357;SDS011;19717;42.614;23.418;2023-04-25T13:15:41;0.63;;;0.52;;
33357;SDS011;19717;42.614;23.418;2023-04-25T13:18:08;0.50;;;0.50;;
33357;SDS011;19717;42.614;23.418;2023-04-25T13:20:34;0.40;;;0.40;;
33357;SDS011;19717;42.614;23.418;2023-04-25T13:23:00;0.40;;;0.40;;
33357;SDS011;19717;42.614;23.418;2023-04-25T13:25:26;0.40;;;0.40;;
33357;SDS011;19717;42.614;23.418;2023-04-25T13:27:52;0.47;;;0.47;;
33357;SDS011;19717;42.614;23.418;2023-04-25T13:30:18;0.40;;;0.40;;
33357;SDS011;19717;42.614;23.418;2023-04-25T13:32:45;0.50;;;0.50;;
33357;SDS011;19717;42.614;23.418;2023-04-25T13:35:12;0.40;;;0.40;;
33357;SDS011;19717;42.614;23.418;2023-04-25T13:37:39;0.47;;;0.47;;
33357;SDS011;19717;42.614;23.418;2023-04-25T13:40:09;0.60;;;0.60;;
33357;SDS011;19717;42.614;23.418;2023-04-25T13:42:39;1.00;;;1.00;;
33357;SDS011;19717;42.614;23.418;2023-04-25T13:45:06;1.30;;;1.20;;
33357;SDS011;19717;42.614;23.418;2023-04-25T13:47:32;2.38;;;2.17;;
33357;SDS011;19717;42.614;23.418;2023-04-25T13:49:59;1.00;;;1.00;;
33357;SDS011;19717;42.614;23.418;2023-04-25T13:52:27;0.70;;;0.70;;
33357;SDS011;19717;42.614;23.418;2023-04-25T13:54:54;0.70;;;0.70;;
33357;SDS011;19717;42.614;23.418;2023-04-25T13:57:20;1.20;;;1.20;;
33357;SDS011;19717;42.614;23.418;2023-04-25T13:59:46;0.60;;;0.60;;
33357;SDS011;19717;42.614;23.418;2023-04-25T14:02:13;0.50;;;0.50;;
33357;SDS011;19717;42.614;23.418;2023-04-25T14:04:39;0.50;;;0.50;;
33357;SDS011;19717;42.614;23.418;2023-04-25T14:07:05;0.60;;;0.60;;
33357;SDS011;19717;42.614;23.418;2023-04-25T14:09:31;1.00;;;1.00;;
33357;SDS011;19717;42.614;23.418;2023-04-25T14:11:57;1.83;;;0.90;;
33357;SDS011;19717;42.614;23.418;2023-04-25T14:14:23;0.68;;;0.68;;
33357;SDS011;19717;42.614;23.418;2023-04-25T14:16:50;1.00;;;0.80;;
33357;SDS011;19717;42.614;23.418;2023-04-25T14:19:19;0.70;;;0.70;;
33357;SDS011;19717;42.614;23.418;2023-04-25T14:21:45;0.82;;;0.80;;
33357;SDS011;19717;42.614;23.418;2023-04-25T14:24:11;2.80;;;1.23;;
33357;SDS011;19717;42.614;23.418;2023-04-25T14:26:37;0.75;;;0.75;;
33357;SDS011;19717;42.614;23.418;2023-04-25T14:29:07;0.80;;;0.80;;
33357;SDS011;19717;42.614;23.418;2023-04-25T14:31:33;0.57;;;0.57;;
33357;SDS011;19717;42.614;23.418;2023-04-25T14:34:00;1.00;;;0.40;;
33357;SDS011;19717;42.614;23.418;2023-04-25T14:36:27;0.50;;;0.50;;
33357;SDS011;19717;42.614;23.418;2023-04-25T14:38:54;0.50;;;0.50;;
33357;SDS011;19717;42.614;23.418;2023-04-25T14:41:20;0.40;;;0.40;;
33357;SDS011;19717;42.614;23.418;2023-04-25T14:43:46;0.60;;;0.60;;
33357;SDS011;19717;42.614;23.418;2023-04-25T14:46:12;0.52;;;0.52;;
33357;SDS011;19717;42.614;23.418;2023-04-25T14:48:38;0.40;;;0.40;;